Terminal Aerodrome Forecast
Issued by NWS

Home | Current Version | Previous Version | Graphics & Text | Print | Product List | Glossary On
Versions: 1 2 3 4 5 6 7 8 9 10 11 12 13 14 15 16 17 18 19 20 21
000
FTUS43 KGRB 021732
TAFAUW
TAF
KAUW 021732Z 0218/0318 31005KT P6SM VCSH BKN020 OVC035
      TEMPO 0219/0223 3SM TSRA BR SCT020CB BKN035
     FM022300 15005KT P6SM VCSH SCT040 BKN070
     FM030300 13003KT 5SM BR VCSH SCT040 BKN120
     FM030900 VRB03KT 3SM BR SCT003 BKN015
      TEMPO 0310/0314 1SM BR BKN003
     FM031500 12005KT P6SM BKN015=

USA.gov is the U.S. government's official web portal to all federal, state and local government web resources and services.